Terminal Aerodrome Forecast
Issued by NWS

Home | Current Version | Previous Version | Text Only | Print | Product List | Glossary On
Versions: 1 2 3 4 5 6 7 8 9 10 11 12 13 14 15 16 17 18 19 20 21 22 23 24 25 26 27 28 29 30 31 32 33 34
000
FTUS46 KOTX 290527
TAFCOE
TAF
KCOE 290527Z 2906/3006 02015G20KT P6SM -SHSN OVC035
     FM291000 03020G28KT P6SM SCT025 BKN100
     FM291700 02029G36KT P6SM BKN060
     FM300200 02020G25KT P6SM SKC
      AMD LTD TO CLD AND VIS=

USA.gov is the U.S. government's official web portal to all federal, state and local government web resources and services.